sensor_id;sensor_type;location;lat;lon;timestamp;P1;P2;P0
64138;PMS5003;50435;43.700;-79.318;2023-09-07T00:00:59;8;8;
64138;PMS5003;50435;43.700;-79.318;2023-09-07T00:03:27;12;9;
64138;PMS5003;50435;43.700;-79.318;2023-09-07T00:05:54;8;8;
64138;PMS5003;50435;43.700;-79.318;2023-09-07T00:08:22;14;13;
64138;PMS5003;50435;43.700;-79.318;2023-09-07T00:10:50;8;8;
64138;PMS5003;50435;43.700;-79.318;2023-09-07T00:13:17;11;10;
64138;PMS5003;50435;43.700;-79.318;2023-09-07T00:15:44;14;11;
64138;PMS5003;50435;43.700;-79.318;2023-09-07T00:18:12;15;12;
64138;PMS5003;50435;43.700;-79.318;2023-09-07T00:20:39;12;11;
64138;PMS5003;50435;43.700;-79.318;2023-09-07T00:23:06;13;11;
64138;PMS5003;50435;43.700;-79.318;2023-09-07T00:25:33;10;10;
64138;PMS5003;50435;43.700;-79.318;2023-09-07T00:28:01;11;9;
64138;PMS5003;50435;43.700;-79.318;2023-09-07T00:30:28;9;9;
64138;PMS5003;50435;43.700;-79.318;2023-09-07T00:32:55;12;9;
64138;PMS5003;50435;43.700;-79.318;2023-09-07T00:35:23;11;11;
64138;PMS5003;50435;43.700;-79.318;2023-09-07T00:37:51;13;13;
64138;PMS5003;50435;43.700;-79.318;2023-09-07T00:40:18;9;9;
64138;PMS5003;50435;43.700;-79.318;2023-09-07T00:42:46;7;7;
64138;PMS5003;50435;43.700;-79.318;2023-09-07T00:45:13;9;9;
64138;PMS5003;50435;43.700;-79.318;2023-09-07T00:47:40;10;9;
64138;PMS5003;50435;43.700;-79.318;2023-09-07T00:50:08;11;11;
64138;PMS5003;50435;43.700;-79.318;2023-09-07T00:52:36;12;11;
64138;PMS5003;50435;43.700;-79.318;2023-09-07T00:55:05;11;10;
64138;PMS5003;50435;43.700;-79.318;2023-09-07T00:57:33;11;11;
64138;PMS5003;50435;43.700;-79.318;2023-09-07T01:00:02;11;10;
64138;PMS5003;50435;43.700;-79.318;2023-09-07T01:02:30;10;8;
64138;PMS5003;50435;43.700;-79.318;2023-09-07T01:04:57;8;8;
64138;PMS5003;50435;43.700;-79.318;2023-09-07T01:07:25;8;7;
64138;PMS5003;50435;43.700;-79.318;2023-09-07T01:09:59;10;10;
64138;PMS5003;50435;43.700;-79.318;2023-09-07T01:12:28;8;8;
64138;PMS5003;50435;43.700;-79.318;2023-09-07T01:14:55;9;7;
64138;PMS5003;50435;43.700;-79.318;2023-09-07T01:17:23;8;8;
64138;PMS5003;50435;43.700;-79.318;2023-09-07T01:19:52;8;8;
64138;PMS5003;50435;43.700;-79.318;2023-09-07T01:22:20;8;8;
64138;PMS5003;50435;43.700;-79.318;2023-09-07T01:24:48;9;9;
64138;PMS5003;50435;43.700;-79.318;2023-09-07T01:27:17;7;7;
64138;PMS5003;50435;43.700;-79.318;2023-09-07T01:29:45;8;8;
64138;PMS5003;50435;43.700;-79.318;2023-09-07T01:32:12;8;8;
64138;PMS5003;50435;43.700;-79.318;2023-09-07T01:34:40;8;8;
64138;PMS5003;50435;43.700;-79.318;2023-09-07T01:37:07;8;8;
64138;PMS5003;50435;43.700;-79.318;2023-09-07T01:39:34;8;8;
64138;PMS5003;50435;43.700;-79.318;2023-09-07T01:42:02;8;8;
64138;PMS5003;50435;43.700;-79.318;2023-09-07T01:44:30;9;9;
64138;PMS5003;50435;43.700;-79.318;2023-09-07T01:46:57;9;9;
64138;PMS5003;50435;43.700;-79.318;2023-09-07T01:49:25;9;9;
64138;PMS5003;50435;43.700;-79.318;2023-09-07T01:51:52;8;8;
64138;PMS5003;50435;43.700;-79.318;2023-09-07T01:54:19;7;7;
64138;PMS5003;50435;43.700;-79.318;2023-09-07T01:56:48;7;7;
64138;PMS5003;50435;43.700;-79.318;2023-09-07T01:59:15;9;9;
64138;PMS5003;50435;43.700;-79.318;2023-09-07T02:01:43;8;8;
64138;PMS5003;50435;43.700;-79.318;2023-09-07T02:04:10;8;6;
64138;PMS5003;50435;43.700;-79.318;2023-09-07T02:06:38;7;7;
64138;PMS5003;50435;43.700;-79.318;2023-09-07T02:09:05;8;8;
64138;PMS5003;50435;43.700;-79.318;2023-09-07T02:11:32;8;8;
64138;PMS5003;50435;43.700;-79.318;2023-09-07T02:14:00;6;6;
64138;PMS5003;50435;43.700;-79.318;2023-09-07T02:16:28;12;11;
64138;PMS5003;50435;43.700;-79.318;2023-09-07T02:19:00;10;9;
64138;PMS5003;50435;43.700;-79.318;2023-09-07T02:21:29;8;7;
64138;PMS5003;50435;43.700;-79.318;2023-09-07T02:23:56;6;6;
64138;PMS5003;50435;43.700;-79.318;2023-09-07T02:26:24;12;8;
64138;PMS5003;50435;43.700;-79.318;2023-09-07T02:28:51;9;8;
64138;PMS5003;50435;43.700;-79.318;2023-09-07T02:31:18;6;6;
64138;PMS5003;50435;43.700;-79.318;2023-09-07T02:33:46;8;8;
64138;PMS5003;50435;43.700;-79.318;2023-09-07T02:36:13;9;9;
64138;PMS5003;50435;43.700;-79.318;2023-09-07T02:38:41;7;7;
64138;PMS5003;50435;43.700;-79.318;2023-09-07T02:41:08;9;8;
64138;PMS5003;50435;43.700;-79.318;2023-09-07T02:43:35;9;9;
64138;PMS5003;50435;43.700;-79.318;2023-09-07T02:46:03;10;8;
64138;PMS5003;50435;43.700;-79.318;2023-09-07T02:48:30;7;7;
64138;PMS5003;50435;43.700;-79.318;2023-09-07T02:50:58;7;7;
64138;PMS5003;50435;43.700;-79.318;2023-09-07T02:53:25;8;8;
64138;PMS5003;50435;43.700;-79.318;2023-09-07T02:55:52;8;8;
64138;PMS5003;50435;43.700;-79.318;2023-09-07T02:58:20;9;8;
64138;PMS5003;50435;43.700;-79.318;2023-09-07T03:00:48;9;8;
64138;PMS5003;50435;43.700;-79.318;2023-09-07T03:03:15;10;10;
64138;PMS5003;50435;43.700;-79.318;2023-09-07T03:05:43;11;11;
64138;PMS5003;50435;43.700;-79.318;2023-09-07T03:08:10;8;6;
64138;PMS5003;50435;43.700;-79.318;2023-09-07T03:10:38;10;9;
64138;PMS5003;50435;43.700;-79.318;2023-09-07T03:13:06;11;9;
64138;PMS5003;50435;43.700;-79.318;2023-09-07T03:15:33;8;8;
64138;PMS5003;50435;43.700;-79.318;2023-09-07T03:18:00;10;8;
64138;PMS5003;50435;43.700;-79.318;2023-09-07T03:20:28;8;8;
64138;PMS5003;50435;43.700;-79.318;2023-09-07T03:22:58;9;7;
64138;PMS5003;50435;43.700;-79.318;2023-09-07T03:25:26;8;8;
64138;PMS5003;50435;43.700;-79.318;2023-09-07T03:27:53;8;8;
64138;PMS5003;50435;43.700;-79.318;2023-09-07T03:30:21;8;7;
64138;PMS5003;50435;43.700;-79.318;2023-09-07T03:32:48;10;10;
64138;PMS5003;50435;43.700;-79.318;2023-09-07T03:35:16;9;7;
64138;PMS5003;50435;43.700;-79.318;2023-09-07T03:37:43;9;8;
64138;PMS5003;50435;43.700;-79.318;2023-09-07T03:40:11;7;7;
64138;PMS5003;50435;43.700;-79.318;2023-09-07T03:42:38;10;8;
64138;PMS5003;50435;43.700;-79.318;2023-09-07T03:45:06;9;8;
64138;PMS5003;50435;43.700;-79.318;2023-09-07T03:47:34;7;7;
64138;PMS5003;50435;43.700;-79.318;2023-09-07T03:50:02;8;6;
64138;PMS5003;50435;43.700;-79.318;2023-09-07T03:52:29;8;6;
64138;PMS5003;50435;43.700;-79.318;2023-09-07T03:54:57;7;7;
64138;PMS5003;50435;43.700;-79.318;2023-09-07T03:57:27;9;7;
64138;PMS5003;50435;43.700;-79.318;2023-09-07T03:59:54;8;8;
64138;PMS5003;50435;43.700;-79.318;2023-09-07T04:02:22;9;7;
64138;PMS5003;50435;43.700;-79.318;2023-09-07T04:04:50;9;9;
64138;PMS5003;50435;43.700;-79.318;2023-09-07T04:07:18;7;5;
64138;PMS5003;50435;43.700;-79.318;2023-09-07T04:09:45;8;8;
64138;PMS5003;50435;43.700;-79.318;2023-09-07T04:12:14;8;8;
64138;PMS5003;50435;43.700;-79.318;2023-09-07T04:14:41;9;8;
64138;PMS5003;50435;43.700;-79.318;2023-09-07T04:17:08;8;8;
64138;PMS5003;50435;43.700;-79.318;2023-09-07T04:19:36;7;7;
64138;PMS5003;50435;43.700;-79.318;2023-09-07T04:22:03;7;6;
64138;PMS5003;50435;43.700;-79.318;2023-09-07T04:24:31;7;7;
64138;PMS5003;50435;43.700;-79.318;2023-09-07T04:26:58;8;7;
64138;PMS5003;50435;43.700;-79.318;2023-09-07T04:29:26;8;8;
64138;PMS5003;50435;43.700;-79.318;2023-09-07T04:31:54;11;9;
64138;PMS5003;50435;43.700;-79.318;2023-09-07T04:34:21;8;6;
64138;PMS5003;50435;43.700;-79.318;2023-09-07T04:36:49;9;7;
64138;PMS5003;50435;43.700;-79.318;2023-09-07T04:39:17;7;7;
64138;PMS5003;50435;43.700;-79.318;2023-09-07T04:41:44;6;6;
64138;PMS5003;50435;43.700;-79.318;2023-09-07T04:44:12;9;7;
64138;PMS5003;50435;43.700;-79.318;2023-09-07T04:46:39;10;8;
64138;PMS5003;50435;43.700;-79.318;2023-09-07T04:49:06;8;8;
64138;PMS5003;50435;43.700;-79.318;2023-09-07T04:51:34;7;7;
64138;PMS5003;50435;43.700;-79.318;2023-09-07T04:54:01;8;7;
64138;PMS5003;50435;43.700;-79.318;2023-09-07T04:56:28;9;9;
64138;PMS5003;50435;43.700;-79.318;2023-09-07T04:58:56;11;10;
64138;PMS5003;50435;43.700;-79.318;2023-09-07T05:01:23;8;7;
64138;PMS5003;50435;43.700;-79.318;2023-09-07T05:03:50;8;7;
64138;PMS5003;50435;43.700;-79.318;2023-09-07T05:06:18;7;7;
64138;PMS5003;50435;43.700;-79.318;2023-09-07T05:08:45;12;11;
64138;PMS5003;50435;43.700;-79.318;2023-09-07T05:11:12;10;8;
64138;PMS5003;50435;43.700;-79.318;2023-09-07T05:13:40;6;6;
64138;PMS5003;50435;43.700;-79.318;2023-09-07T05:16:07;7;6;
64138;PMS5003;50435;43.700;-79.318;2023-09-07T05:18:34;13;10;
64138;PMS5003;50435;43.700;-79.318;2023-09-07T05:21:10;8;7;
64138;PMS5003;50435;43.700;-79.318;2023-09-07T05:23:39;7;7;
64138;PMS5003;50435;43.700;-79.318;2023-09-07T05:26:06;8;7;
64138;PMS5003;50435;43.700;-79.318;2023-09-07T05:28:34;8;8;
64138;PMS5003;50435;43.700;-79.318;2023-09-07T05:31:01;6;5;
64138;PMS5003;50435;43.700;-79.318;2023-09-07T05:33:29;6;6;
64138;PMS5003;50435;43.700;-79.318;2023-09-07T05:35:56;8;6;
64138;PMS5003;50435;43.700;-79.318;2023-09-07T05:38:24;9;7;
64138;PMS5003;50435;43.700;-79.318;2023-09-07T05:40:51;9;7;
64138;PMS5003;50435;43.700;-79.318;2023-09-07T05:43:18;8;7;
64138;PMS5003;50435;43.700;-79.318;2023-09-07T05:45:46;7;6;
64138;PMS5003;50435;43.700;-79.318;2023-09-07T05:48:14;10;10;
64138;PMS5003;50435;43.700;-79.318;2023-09-07T05:50:41;8;8;
64138;PMS5003;50435;43.700;-79.318;2023-09-07T05:53:10;6;6;
64138;PMS5003;50435;43.700;-79.318;2023-09-07T05:55:37;5;5;
64138;PMS5003;50435;43.700;-79.318;2023-09-07T05:58:05;9;7;
64138;PMS5003;50435;43.700;-79.318;2023-09-07T06:00:34;7;7;
64138;PMS5003;50435;43.700;-79.318;2023-09-07T06:03:02;6;6;
64138;PMS5003;50435;43.700;-79.318;2023-09-07T06:05:30;9;9;
64138;PMS5003;50435;43.700;-79.318;2023-09-07T06:07:58;7;7;
64138;PMS5003;50435;43.700;-79.318;2023-09-07T06:10:27;5;5;
64138;PMS5003;50435;43.700;-79.318;2023-09-07T06:12:54;9;7;
64138;PMS5003;50435;43.700;-79.318;2023-09-07T06:15:22;10;9;
64138;PMS5003;50435;43.700;-79.318;2023-09-07T06:17:49;7;7;
64138;PMS5003;50435;43.700;-79.318;2023-09-07T06:20:17;9;9;
64138;PMS5003;50435;43.700;-79.318;2023-09-07T06:22:44;10;9;
64138;PMS5003;50435;43.700;-79.318;2023-09-07T06:25:11;10;9;
64138;PMS5003;50435;43.700;-79.318;2023-09-07T06:27:38;8;6;
64138;PMS5003;50435;43.700;-79.318;2023-09-07T06:30:06;9;8;
64138;PMS5003;50435;43.700;-79.318;2023-09-07T06:32:34;7;7;
64138;PMS5003;50435;43.700;-79.318;2023-09-07T06:35:02;11;11;
64138;PMS5003;50435;43.700;-79.318;2023-09-07T06:37:30;10;7;
64138;PMS5003;50435;43.700;-79.318;2023-09-07T06:39:57;8;8;
64138;PMS5003;50435;43.700;-79.318;2023-09-07T06:42:25;7;7;
64138;PMS5003;50435;43.700;-79.318;2023-09-07T06:44:53;12;11;
64138;PMS5003;50435;43.700;-79.318;2023-09-07T06:47:20;10;9;
64138;PMS5003;50435;43.700;-79.318;2023-09-07T06:49:48;10;8;
64138;PMS5003;50435;43.700;-79.318;2023-09-07T06:52:15;8;8;
64138;PMS5003;50435;43.700;-79.318;2023-09-07T06:54:43;9;9;
64138;PMS5003;50435;43.700;-79.318;2023-09-07T06:57:10;8;6;
64138;PMS5003;50435;43.700;-79.318;2023-09-07T06:59:37;8;6;
64138;PMS5003;50435;43.700;-79.318;2023-09-07T07:02:05;11;9;
64138;PMS5003;50435;43.700;-79.318;2023-09-07T07:04:32;7;7;
64138;PMS5003;50435;43.700;-79.318;2023-09-07T07:07:00;7;7;
64138;PMS5003;50435;43.700;-79.318;2023-09-07T07:09:27;6;6;
64138;PMS5003;50435;43.700;-79.318;2023-09-07T07:11:54;8;6;
64138;PMS5003;50435;43.700;-79.318;2023-09-07T07:14:21;7;7;
64138;PMS5003;50435;43.700;-79.318;2023-09-07T07:16:49;7;7;
64138;PMS5003;50435;43.700;-79.318;2023-09-07T07:19:16;8;7;
64138;PMS5003;50435;43.700;-79.318;2023-09-07T07:21:43;10;10;
64138;PMS5003;50435;43.700;-79.318;2023-09-07T07:24:10;7;7;
64138;PMS5003;50435;43.700;-79.318;2023-09-07T07:26:38;7;6;
64138;PMS5003;50435;43.700;-79.318;2023-09-07T07:29:05;8;8;
64138;PMS5003;50435;43.700;-79.318;2023-09-07T07:31:33;9;8;
64138;PMS5003;50435;43.700;-79.318;2023-09-07T07:34:00;8;7;
64138;PMS5003;50435;43.700;-79.318;2023-09-07T07:36:27;8;8;
64138;PMS5003;50435;43.700;-79.318;2023-09-07T07:38:55;7;7;
64138;PMS5003;50435;43.700;-79.318;2023-09-07T07:41:22;9;9;
64138;PMS5003;50435;43.700;-79.318;2023-09-07T07:43:50;8;8;
64138;PMS5003;50435;43.700;-79.318;2023-09-07T07:46:17;10;10;
64138;PMS5003;50435;43.700;-79.318;2023-09-07T07:48:44;7;6;
64138;PMS5003;50435;43.700;-79.318;2023-09-07T07:51:11;10;8;
64138;PMS5003;50435;43.700;-79.318;2023-09-07T07:53:39;9;8;
64138;PMS5003;50435;43.700;-79.318;2023-09-07T07:56:13;7;7;
64138;PMS5003;50435;43.700;-79.318;2023-09-07T07:58:41;7;7;
64138;PMS5003;50435;43.700;-79.318;2023-09-07T08:01:13;7;7;
64138;PMS5003;50435;43.700;-79.318;2023-09-07T08:03:41;9;8;
64138;PMS5003;50435;43.700;-79.318;2023-09-07T08:06:08;13;9;
64138;PMS5003;50435;43.700;-79.318;2023-09-07T08:08:36;9;9;
64138;PMS5003;50435;43.700;-79.318;2023-09-07T08:11:03;10;10;
64138;PMS5003;50435;43.700;-79.318;2023-09-07T08:13:31;9;9;
64138;PMS5003;50435;43.700;-79.318;2023-09-07T08:16:00;9;9;
64138;PMS5003;50435;43.700;-79.318;2023-09-07T08:18:27;10;10;
64138;PMS5003;50435;43.700;-79.318;2023-09-07T08:20:55;11;10;
64138;PMS5003;50435;43.700;-79.318;2023-09-07T08:23:23;9;9;
64138;PMS5003;50435;43.700;-79.318;2023-09-07T08:25:51;8;7;
64138;PMS5003;50435;43.700;-79.318;2023-09-07T08:28:18;9;9;
64138;PMS5003;50435;43.700;-79.318;2023-09-07T08:30:46;7;7;
64138;PMS5003;50435;43.700;-79.318;2023-09-07T08:33:14;9;8;
64138;PMS5003;50435;43.700;-79.318;2023-09-07T08:35:42;7;7;
64138;PMS5003;50435;43.700;-79.318;2023-09-07T08:38:09;9;8;
64138;PMS5003;50435;43.700;-79.318;2023-09-07T08:40:38;8;6;
64138;PMS5003;50435;43.700;-79.318;2023-09-07T08:43:05;7;7;
64138;PMS5003;50435;43.700;-79.318;2023-09-07T08:45:37;8;7;
64138;PMS5003;50435;43.700;-79.318;2023-09-07T08:48:08;10;10;
64138;PMS5003;50435;43.700;-79.318;2023-09-07T08:50:37;8;6;
64138;PMS5003;50435;43.700;-79.318;2023-09-07T08:53:07;11;9;
64138;PMS5003;50435;43.700;-79.318;2023-09-07T08:55:35;9;7;
64138;PMS5003;50435;43.700;-79.318;2023-09-07T08:58:02;9;9;
64138;PMS5003;50435;43.700;-79.318;2023-09-07T09:00:30;9;9;
64138;PMS5003;50435;43.700;-79.318;2023-09-07T09:02:57;8;7;
64138;PMS5003;50435;43.700;-79.318;2023-09-07T09:05:26;10;9;
64138;PMS5003;50435;43.700;-79.318;2023-09-07T09:08:02;11;8;
64138;PMS5003;50435;43.700;-79.318;2023-09-07T09:10:31;9;9;
64138;PMS5003;50435;43.700;-79.318;2023-09-07T09:12:58;7;7;
64138;PMS5003;50435;43.700;-79.318;2023-09-07T09:15:26;13;12;
64138;PMS5003;50435;43.700;-79.318;2023-09-07T09:17:53;9;9;
64138;PMS5003;50435;43.700;-79.318;2023-09-07T09:20:21;9;9;
64138;PMS5003;50435;43.700;-79.318;2023-09-07T09:22:51;9;9;
64138;PMS5003;50435;43.700;-79.318;2023-09-07T09:25:20;12;9;
64138;PMS5003;50435;43.700;-79.318;2023-09-07T09:27:48;9;8;
64138;PMS5003;50435;43.700;-79.318;2023-09-07T09:30:15;11;8;
64138;PMS5003;50435;43.700;-79.318;2023-09-07T09:32:43;8;8;
64138;PMS5003;50435;43.700;-79.318;2023-09-07T09:35:11;10;8;
64138;PMS5003;50435;43.700;-79.318;2023-09-07T09:37:46;11;8;
64138;PMS5003;50435;43.700;-79.318;2023-09-07T09:40:14;8;8;
64138;PMS5003;50435;43.700;-79.318;2023-09-07T09:42:43;10;9;
64138;PMS5003;50435;43.700;-79.318;2023-09-07T09:45:11;10;10;
64138;PMS5003;50435;43.700;-79.318;2023-09-07T09:47:40;11;11;
64138;PMS5003;50435;43.700;-79.318;2023-09-07T09:50:09;7;7;
64138;PMS5003;50435;43.700;-79.318;2023-09-07T09:52:38;15;15;
64138;PMS5003;50435;43.700;-79.318;2023-09-07T09:55:06;15;12;
64138;PMS5003;50435;43.700;-79.318;2023-09-07T09:57:35;8;8;
64138;PMS5003;50435;43.700;-79.318;2023-09-07T10:00:03;9;8;
64138;PMS5003;50435;43.700;-79.318;2023-09-07T10:02:32;11;8;
64138;PMS5003;50435;43.700;-79.318;2023-09-07T10:05:03;8;8;
64138;PMS5003;50435;43.700;-79.318;2023-09-07T10:07:40;6;5;
64138;PMS5003;50435;43.700;-79.318;2023-09-07T10:10:10;7;7;
64138;PMS5003;50435;43.700;-79.318;2023-09-07T10:12:40;5;4;
64138;PMS5003;50435;43.700;-79.318;2023-09-07T10:15:19;5;5;
64138;PMS5003;50435;43.700;-79.318;2023-09-07T10:17:48;4;4;
64138;PMS5003;50435;43.700;-79.318;2023-09-07T10:20:15;5;5;
64138;PMS5003;50435;43.700;-79.318;2023-09-07T10:22:43;5;2;
64138;PMS5003;50435;43.700;-79.318;2023-09-07T10:25:27;3;3;
64138;PMS5003;50435;43.700;-79.318;2023-09-07T10:27:57;5;4;
64138;PMS5003;50435;43.700;-79.318;2023-09-07T10:30:25;5;5;
64138;PMS5003;50435;43.700;-79.318;2023-09-07T10:32:52;5;5;
64138;PMS5003;50435;43.700;-79.318;2023-09-07T10:35:20;5;4;
64138;PMS5003;50435;43.700;-79.318;2023-09-07T10:37:47;8;5;
64138;PMS5003;50435;43.700;-79.318;2023-09-07T10:40:22;3;3;
64138;PMS5003;50435;43.700;-79.318;2023-09-07T10:43:00;5;2;
64138;PMS5003;50435;43.700;-79.318;2023-09-07T10:45:28;4;4;
64138;PMS5003;50435;43.700;-79.318;2023-09-07T10:47:55;4;3;
64138;PMS5003;50435;43.700;-79.318;2023-09-07T10:50:23;3;3;
64138;PMS5003;50435;43.700;-79.318;2023-09-07T10:52:50;4;4;
64138;PMS5003;50435;43.700;-79.318;2023-09-07T10:55:17;3;3;
64138;PMS5003;50435;43.700;-79.318;2023-09-07T10:57:45;3;3;
64138;PMS5003;50435;43.700;-79.318;2023-09-07T11:00:14;7;7;
64138;PMS5003;50435;43.700;-79.318;2023-09-07T11:02:43;6;3;
64138;PMS5003;50435;43.700;-79.318;2023-09-07T11:05:11;5;4;
64138;PMS5003;50435;43.700;-79.318;2023-09-07T11:07:38;5;3;
64138;PMS5003;50435;43.700;-79.318;2023-09-07T11:10:06;5;5;
64138;PMS5003;50435;43.700;-79.318;2023-09-07T11:12:37;7;4;
64138;PMS5003;50435;43.700;-79.318;2023-09-07T11:15:08;7;6;
64138;PMS5003;50435;43.700;-79.318;2023-09-07T11:17:37;2;2;
64138;PMS5003;50435;43.700;-79.318;2023-09-07T11:20:06;4;4;
64138;PMS5003;50435;43.700;-79.318;2023-09-07T11:22:35;2;2;
64138;PMS5003;50435;43.700;-79.318;2023-09-07T11:25:04;2;2;
64138;PMS5003;50435;43.700;-79.318;2023-09-07T11:27:32;4;4;
64138;PMS5003;50435;43.700;-79.318;2023-09-07T11:30:00;3;3;
64138;PMS5003;50435;43.700;-79.318;2023-09-07T11:32:32;5;4;
64138;PMS5003;50435;43.700;-79.318;2023-09-07T11:35:00;3;2;
64138;PMS5003;50435;43.700;-79.318;2023-09-07T11:37:28;2;2;
64138;PMS5003;50435;43.700;-79.318;2023-09-07T11:39:55;3;3;
64138;PMS5003;50435;43.700;-79.318;2023-09-07T11:42:23;1;1;
64138;PMS5003;50435;43.700;-79.318;2023-09-07T11:44:50;3;1;
64138;PMS5003;50435;43.700;-79.318;2023-09-07T11:47:18;2;2;
64138;PMS5003;50435;43.700;-79.318;2023-09-07T11:49:45;2;2;
64138;PMS5003;50435;43.700;-79.318;2023-09-07T11:52:13;0;0;
64138;PMS5003;50435;43.700;-79.318;2023-09-07T11:54:41;1;1;
64138;PMS5003;50435;43.700;-79.318;2023-09-07T11:57:09;3;3;
64138;PMS5003;50435;43.700;-79.318;2023-09-07T11:59:36;3;3;
64138;PMS5003;50435;43.700;-79.318;2023-09-07T12:02:04;0;0;
64138;PMS5003;50435;43.700;-79.318;2023-09-07T12:04:31;3;3;
64138;PMS5003;50435;43.700;-79.318;2023-09-07T12:06:58;6;4;
64138;PMS5003;50435;43.700;-79.318;2023-09-07T12:09:26;3;3;
64138;PMS5003;50435;43.700;-79.318;2023-09-07T12:11:53;7;3;
64138;PMS5003;50435;43.700;-79.318;2023-09-07T12:14:21;3;3;
64138;PMS5003;50435;43.700;-79.318;2023-09-07T12:16:48;4;4;
64138;PMS5003;50435;43.700;-79.318;2023-09-07T12:19:16;4;4;
64138;PMS5003;50435;43.700;-79.318;2023-09-07T12:21:43;5;5;
64138;PMS5003;50435;43.700;-79.318;2023-09-07T12:24:11;2;2;
64138;PMS5003;50435;43.700;-79.318;2023-09-07T12:26:38;5;4;
64138;PMS5003;50435;43.700;-79.318;2023-09-07T12:29:06;5;4;
64138;PMS5003;50435;43.700;-79.318;2023-09-07T12:31:33;5;4;
64138;PMS5003;50435;43.700;-79.318;2023-09-07T12:34:01;4;4;
64138;PMS5003;50435;43.700;-79.318;2023-09-07T12:36:28;4;2;
64138;PMS5003;50435;43.700;-79.318;2023-09-07T12:38:56;5;3;
64138;PMS5003;50435;43.700;-79.318;2023-09-07T12:41:23;3;3;
64138;PMS5003;50435;43.700;-79.318;2023-09-07T12:43:51;3;3;
64138;PMS5003;50435;43.700;-79.318;2023-09-07T12:46:18;2;2;
64138;PMS5003;50435;43.700;-79.318;2023-09-07T12:48:46;0;0;
64138;PMS5003;50435;43.700;-79.318;2023-09-07T12:51:13;4;3;
64138;PMS5003;50435;43.700;-79.318;2023-09-07T12:53:41;3;2;
64138;PMS5003;50435;43.700;-79.318;2023-09-07T12:56:08;4;3;
64138;PMS5003;50435;43.700;-79.318;2023-09-07T12:58:36;3;2;
64138;PMS5003;50435;43.700;-79.318;2023-09-07T13:01:03;2;2;
64138;PMS5003;50435;43.700;-79.318;2023-09-07T13:03:31;3;3;
64138;PMS5003;50435;43.700;-79.318;2023-09-07T13:05:58;2;2;
64138;PMS5003;50435;43.700;-79.318;2023-09-07T13:08:25;3;3;
64138;PMS5003;50435;43.700;-79.318;2023-09-07T13:10:53;2;2;
64138;PMS5003;50435;43.700;-79.318;2023-09-07T13:13:20;3;3;
64138;PMS5003;50435;43.700;-79.318;2023-09-07T13:15:48;2;2;
64138;PMS5003;50435;43.700;-79.318;2023-09-07T13:18:15;6;5;
64138;PMS5003;50435;43.700;-79.318;2023-09-07T13:20:43;6;4;
64138;PMS5003;50435;43.700;-79.318;2023-09-07T13:23:10;3;3;
64138;PMS5003;50435;43.700;-79.318;2023-09-07T13:25:38;5;5;
64138;PMS5003;50435;43.700;-79.318;2023-09-07T13:28:05;2;2;
64138;PMS5003;50435;43.700;-79.318;2023-09-07T13:30:33;5;4;
64138;PMS5003;50435;43.700;-79.318;2023-09-07T13:33:00;3;3;
64138;PMS5003;50435;43.700;-79.318;2023-09-07T13:35:28;4;4;
64138;PMS5003;50435;43.700;-79.318;2023-09-07T13:37:55;3;3;
64138;PMS5003;50435;43.700;-79.318;2023-09-07T13:40:22;5;4;
64138;PMS5003;50435;43.700;-79.318;2023-09-07T13:42:50;4;4;
64138;PMS5003;50435;43.700;-79.318;2023-09-07T13:45:17;4;4;
64138;PMS5003;50435;43.700;-79.318;2023-09-07T13:47:45;4;3;
64138;PMS5003;50435;43.700;-79.318;2023-09-07T13:50:12;5;5;
64138;PMS5003;50435;43.700;-79.318;2023-09-07T13:52:40;4;4;
64138;PMS5003;50435;43.700;-79.318;2023-09-07T13:55:07;6;3;
64138;PMS5003;50435;43.700;-79.318;2023-09-07T13:57:36;5;5;
64138;PMS5003;50435;43.700;-79.318;2023-09-07T14:00:03;4;4;
64138;PMS5003;50435;43.700;-79.318;2023-09-07T14:02:31;7;6;
64138;PMS5003;50435;43.700;-79.318;2023-09-07T14:04:59;5;4;
64138;PMS5003;50435;43.700;-79.318;2023-09-07T14:07:26;3;2;
64138;PMS5003;50435;43.700;-79.318;2023-09-07T14:09:54;2;2;
64138;PMS5003;50435;43.700;-79.318;2023-09-07T14:12:21;6;6;
64138;PMS5003;50435;43.700;-79.318;2023-09-07T14:14:49;3;3;
64138;PMS5003;50435;43.700;-79.318;2023-09-07T14:17:16;4;4;
64138;PMS5003;50435;43.700;-79.318;2023-09-07T14:19:43;3;3;
64138;PMS5003;50435;43.700;-79.318;2023-09-07T14:22:11;6;5;
64138;PMS5003;50435;43.700;-79.318;2023-09-07T14:24:38;3;3;
64138;PMS5003;50435;43.700;-79.318;2023-09-07T14:27:06;4;4;
64138;PMS5003;50435;43.700;-79.318;2023-09-07T14:29:33;4;3;
64138;PMS5003;50435;43.700;-79.318;2023-09-07T14:32:00;2;2;
64138;PMS5003;50435;43.700;-79.318;2023-09-07T14:34:28;4;2;
64138;PMS5003;50435;43.700;-79.318;2023-09-07T14:36:55;1;1;
64138;PMS5003;50435;43.700;-79.318;2023-09-07T14:39:23;3;3;
64138;PMS5003;50435;43.700;-79.318;2023-09-07T14:41:50;2;2;
64138;PMS5003;50435;43.700;-79.318;2023-09-07T14:44:18;3;3;
64138;PMS5003;50435;43.700;-79.318;2023-09-07T14:46:45;5;3;
64138;PMS5003;50435;43.700;-79.318;2023-09-07T14:49:13;5;5;
64138;PMS5003;50435;43.700;-79.318;2023-09-07T14:51:40;2;2;
64138;PMS5003;50435;43.700;-79.318;2023-09-07T14:54:07;4;3;
64138;PMS5003;50435;43.700;-79.318;2023-09-07T14:56:35;5;4;
64138;PMS5003;50435;43.700;-79.318;2023-09-07T14:59:03;2;2;
64138;PMS5003;50435;43.700;-79.318;2023-09-07T15:01:30;4;4;
64138;PMS5003;50435;43.700;-79.318;2023-09-07T15:03:57;2;2;
64138;PMS5003;50435;43.700;-79.318;2023-09-07T15:06:25;6;4;
64138;PMS5003;50435;43.700;-79.318;2023-09-07T15:08:52;5;4;
64138;PMS5003;50435;43.700;-79.318;2023-09-07T15:11:20;2;2;
64138;PMS5003;50435;43.700;-79.318;2023-09-07T15:13:48;3;3;
64138;PMS5003;50435;43.700;-79.318;2023-09-07T15:16:15;6;5;
64138;PMS5003;50435;43.700;-79.318;2023-09-07T15:18:42;4;4;
64138;PMS5003;50435;43.700;-79.318;2023-09-07T15:21:10;8;6;
64138;PMS5003;50435;43.700;-79.318;2023-09-07T15:23:37;7;7;
64138;PMS5003;50435;43.700;-79.318;2023-09-07T15:26:05;10;8;
64138;PMS5003;50435;43.700;-79.318;2023-09-07T15:28:32;9;8;
64138;PMS5003;50435;43.700;-79.318;2023-09-07T15:31:00;14;12;
64138;PMS5003;50435;43.700;-79.318;2023-09-07T15:33:28;9;9;
64138;PMS5003;50435;43.700;-79.318;2023-09-07T15:35:55;11;7;
64138;PMS5003;50435;43.700;-79.318;2023-09-07T15:38:22;11;10;
64138;PMS5003;50435;43.700;-79.318;2023-09-07T15:40:50;13;13;
64138;PMS5003;50435;43.700;-79.318;2023-09-07T15:43:17;11;11;
64138;PMS5003;50435;43.700;-79.318;2023-09-07T15:45:44;8;7;
64138;PMS5003;50435;43.700;-79.318;2023-09-07T15:48:12;12;12;
64138;PMS5003;50435;43.700;-79.318;2023-09-07T15:50:39;14;13;
64138;PMS5003;50435;43.700;-79.318;2023-09-07T15:53:07;15;13;
64138;PMS5003;50435;43.700;-79.318;2023-09-07T15:55:35;15;11;
64138;PMS5003;50435;43.700;-79.318;2023-09-07T15:58:03;16;13;
64138;PMS5003;50435;43.700;-79.318;2023-09-07T16:00:30;17;16;
64138;PMS5003;50435;43.700;-79.318;2023-09-07T16:02:58;22;18;
64138;PMS5003;50435;43.700;-79.318;2023-09-07T16:05:25;25;23;
64138;PMS5003;50435;43.700;-79.318;2023-09-07T16:07:52;25;23;
64138;PMS5003;50435;43.700;-79.318;2023-09-07T16:10:20;22;19;
64138;PMS5003;50435;43.700;-79.318;2023-09-07T16:12:47;15;13;
64138;PMS5003;50435;43.700;-79.318;2023-09-07T16:15:14;13;11;